Time;durP1;ratioP1;P1;durP2;ratioP2;P2;SDS_P1;SDS_P2;PMS_P1;PMS_P2;Temp;Humidity;BMP_temperature;BMP_pressure;BME280_temperature;BME280_humidity;BME280_pressure;Samples;Min_cycle;Max_cycle;Signal;HPM_P1;HPM_P2
2021/03/13 00:00:48;;;;;;;0.90;0.40;;;8.00;99.90;;;;;;5033769;28;20544;-75
2021/03/13 00:03:15;;;;;;;2.30;0.73;;;8.10;99.90;;;;;;5035966;28;20174;-76
2021/03/13 00:05:42;;;;;;;1.00;0.40;;;8.10;99.90;;;;;;5035507;28;20224;-76
2021/03/13 00:08:09;;;;;;;2.17;0.57;;;8.20;99.90;;;;;;5035673;28;20214;-76
2021/03/13 00:10:36;;;;;;;0.83;0.40;;;8.20;99.90;;;;;;5032558;28;20533;-76
2021/03/13 00:13:03;;;;;;;2.63;0.60;;;8.20;99.90;;;;;;5035574;28;20733;-77
2021/03/13 00:15:30;;;;;;;1.07;0.30;;;8.20;99.90;;;;;;5035529;28;20173;-76
2021/03/13 00:17:57;;;;;;;1.17;0.50;;;7.90;99.90;;;;;;5035416;28;20240;-76
2021/03/13 00:20:25;;;;;;;1.23;0.50;;;7.80;99.90;;;;;;5035255;28;20176;-76
2021/03/13 00:22:55;;;;;;;1.33;0.50;;;7.80;99.90;;;;;;5034162;28;20166;-76
2021/03/13 00:25:22;;;;;;;2.47;0.60;;;7.70;99.90;;;;;;5035399;28;20229;-76
2021/03/13 00:27:49;;;;;;;2.87;0.40;;;7.70;99.90;;;;;;5035311;28;20201;-76
2021/03/13 00:30:31;;;;;;;1.17;0.60;;;7.70;99.90;;;;;;5035448;28;20253;-77
2021/03/13 00:33:00;;;;;;;2.17;0.80;;;7.70;99.90;;;;;;5035309;28;20261;-76
2021/03/13 00:35:28;;;;;;;1.03;0.50;;;7.70;99.90;;;;;;5033829;28;20197;-77
2021/03/13 00:37:56;;;;;;;1.43;0.43;;;7.70;99.90;;;;;;5035115;28;20581;-77
2021/03/13 00:40:23;;;;;;;1.30;0.77;;;7.70;99.90;;;;;;5035217;28;20598;-76
2021/03/13 00:42:49;;;;;;;1.40;0.40;;;7.70;99.90;;;;;;5036321;28;20182;-74
2021/03/13 00:45:18;;;;;;;1.83;0.60;;;7.80;99.90;;;;;;5034117;28;20174;-76
2021/03/13 00:47:44;;;;;;;2.37;0.63;;;7.70;99.90;;;;;;5033110;28;20217;-74
2021/03/13 00:50:11;;;;;;;2.40;0.70;;;7.70;99.90;;;;;;5035108;28;20720;-75
2021/03/13 00:52:37;;;;;;;3.57;0.73;;;7.60;99.90;;;;;;5035314;28;20175;-75
2021/03/13 00:55:05;;;;;;;1.67;0.80;;;7.50;99.90;;;;;;5034910;28;20186;-75
2021/03/13 00:57:31;;;;;;;4.40;0.70;;;7.40;99.90;;;;;;5026601;28;20202;-75
2021/03/13 00:59:57;;;;;;;2.73;0.60;;;7.30;99.90;;;;;;5026465;28;20727;-75
2021/03/13 01:02:23;;;;;;;1.73;0.50;;;7.00;99.90;;;;;;5033029;28;20257;-74
2021/03/13 01:04:48;;;;;;;1.47;0.60;;;6.60;99.90;;;;;;5027922;28;20653;-75
2021/03/13 01:07:14;;;;;;;0.60;0.40;;;6.50;99.90;;;;;;5021345;28;20204;-75
2021/03/13 01:09:40;;;;;;;1.70;0.83;;;6.40;99.90;;;;;;5016135;28;20657;-74
2021/03/13 01:12:06;;;;;;;1.53;0.60;;;6.30;99.90;;;;;;5015472;28;20178;-75
2021/03/13 01:14:32;;;;;;;1.23;0.60;;;6.30;99.90;;;;;;5016351;28;20198;-75
2021/03/13 01:16:58;;;;;;;1.37;0.70;;;6.20;99.90;;;;;;5017508;28;20206;-75
2021/03/13 01:19:23;;;;;;;1.17;0.63;;;6.30;99.90;;;;;;5017201;28;20294;-75
2021/03/13 01:21:49;;;;;;;3.20;0.67;;;6.20;99.90;;;;;;5013532;28;20186;-75
2021/03/13 01:24:15;;;;;;;0.70;0.57;;;6.20;99.90;;;;;;5014620;28;20589;-75
2021/03/13 01:26:41;;;;;;;1.20;0.50;;;6.10;99.90;;;;;;5012497;28;20265;-75
2021/03/13 01:29:07;;;;;;;1.30;0.50;;;6.10;99.90;;;;;;5027550;28;20295;-74
2021/03/13 01:31:33;;;;;;;1.37;0.77;;;6.10;99.90;;;;;;5030945;28;20273;-75
2021/03/13 01:33:58;;;;;;;1.23;0.70;;;6.20;99.90;;;;;;5032196;28;20177;-75
2021/03/13 01:36:24;;;;;;;2.60;0.77;;;6.10;99.90;;;;;;5031918;28;20202;-75
2021/03/13 01:38:50;;;;;;;3.53;0.90;;;6.20;99.90;;;;;;5031855;28;20270;-75
2021/03/13 01:41:16;;;;;;;1.23;0.90;;;6.20;99.90;;;;;;5032237;28;20176;-75
2021/03/13 01:43:42;;;;;;;2.83;1.00;;;6.20;99.90;;;;;;5032549;28;20654;-75
2021/03/13 01:46:08;;;;;;;1.10;0.70;;;6.20;99.90;;;;;;5031541;28;20188;-75
2021/03/13 01:48:37;;;;;;;2.50;1.10;;;6.30;99.90;;;;;;5031587;28;20209;-75
2021/03/13 01:51:04;;;;;;;3.47;0.87;;;6.30;99.90;;;;;;5031778;28;20173;-75
2021/03/13 01:53:29;;;;;;;2.00;0.80;;;6.30;99.90;;;;;;5031633;28;20257;-76
2021/03/13 01:55:55;;;;;;;1.87;0.90;;;6.40;99.90;;;;;;5031718;28;20285;-75
2021/03/13 01:58:21;;;;;;;2.30;0.97;;;6.40;99.90;;;;;;5030157;28;20198;-76
2021/03/13 02:00:47;;;;;;;2.40;0.97;;;6.40;99.90;;;;;;5030487;28;20240;-75
2021/03/13 02:03:13;;;;;;;2.23;0.90;;;6.40;99.90;;;;;;5031941;28;20187;-75
2021/03/13 02:05:43;;;;;;;4.20;0.90;;;6.40;99.90;;;;;;5030565;28;20158;-75
2021/03/13 02:08:25;;;;;;;2.27;0.90;;;6.40;99.90;;;;;;5031599;28;20222;-76
2021/03/13 02:11:12;;;;;;;1.50;0.93;;;6.50;99.90;;;;;;5031749;28;20170;-75
2021/03/13 02:13:56;;;;;;;2.37;0.90;;;6.60;99.90;;;;;;5041990;28;20265;-75
2021/03/13 02:16:28;;;;;;;2.63;0.97;;;6.60;99.90;;;;;;5052270;28;20679;-75
2021/03/13 02:19:22;;;;;;;2.90;1.03;;;6.60;99.90;;;;;;5051188;28;20197;-75
2021/03/13 02:21:59;;;;;;;2.00;1.00;;;6.60;99.90;;;;;;5051407;28;20173;-75
2021/03/13 02:24:27;;;;;;;3.10;0.83;;;6.60;99.90;;;;;;5056206;28;20181;-74
2021/03/13 02:27:08;;;;;;;2.53;0.97;;;6.70;99.90;;;;;;5057796;28;20169;-75
2021/03/13 02:29:40;;;;;;;2.50;1.23;;;6.70;99.90;;;;;;5043786;28;20201;-75
2021/03/13 02:32:36;;;;;;;3.67;0.80;;;6.70;99.90;;;;;;5036548;28;20174;-75
2021/03/13 02:35:14;;;;;;;4.43;1.03;;;6.80;99.90;;;;;;5024477;28;20209;-75
2021/03/13 02:37:45;;;;;;;2.73;0.97;;;6.80;99.90;;;;;;5037855;28;20217;-75
2021/03/13 02:40:16;;;;;;;4.13;1.20;;;6.80;99.90;;;;;;5038300;28;20167;-76
2021/03/13 02:42:57;;;;;;;2.27;1.00;;;6.90;99.90;;;;;;5023828;28;20178;-75
2021/03/13 02:45:30;;;;;;;3.53;1.13;;;6.90;99.90;;;;;;5036246;28;20170;-75
2021/03/13 02:47:57;;;;;;;2.97;0.70;;;7.00;99.90;;;;;;5034395;28;20202;-75
2021/03/13 02:50:25;;;;;;;4.83;0.90;;;7.00;99.90;;;;;;5035452;28;20181;-75
2021/03/13 02:52:53;;;;;;;1.90;0.80;;;6.90;99.90;;;;;;5037475;28;20178;-76
2021/03/13 02:55:22;;;;;;;2.80;0.77;;;6.80;99.90;;;;;;5037709;28;20479;-75
2021/03/13 02:57:51;;;;;;;2.80;1.10;;;6.90;99.90;;;;;;5036630;28;20582;-75
2021/03/13 03:00:19;;;;;;;2.70;1.40;;;7.00;99.90;;;;;;5039101;28;20206;-74
2021/03/13 03:02:51;;;;;;;4.47;1.73;;;7.00;99.90;;;;;;5037754;28;20261;-76
2021/03/13 03:05:17;;;;;;;2.47;0.90;;;6.90;99.90;;;;;;5037555;28;20222;-75
2021/03/13 03:07:46;;;;;;;2.37;1.10;;;7.00;99.90;;;;;;5037463;28;20245;-75
2021/03/13 03:10:17;;;;;;;4.27;0.80;;;7.00;99.90;;;;;;5037422;28;20185;-75
2021/03/13 03:12:46;;;;;;;3.93;1.10;;;7.00;99.90;;;;;;5037689;28;20206;-75
2021/03/13 03:15:14;;;;;;;2.57;0.73;;;6.90;99.90;;;;;;5037359;28;20182;-75
2021/03/13 03:17:40;;;;;;;4.33;1.03;;;7.00;99.90;;;;;;5037050;28;20206;-75
2021/03/13 03:20:09;;;;;;;5.37;1.00;;;7.00;99.90;;;;;;5037495;28;20182;-75
2021/03/13 03:22:37;;;;;;;2.80;1.70;;;7.10;99.90;;;;;;5037160;28;20171;-75
2021/03/13 03:25:07;;;;;;;1.73;0.83;;;7.00;99.90;;;;;;5035767;28;20182;-75
2021/03/13 03:27:33;;;;;;;1.90;1.27;;;6.90;99.90;;;;;;5037202;28;20225;-75
2021/03/13 03:29:59;;;;;;;1.80;0.57;;;7.00;99.90;;;;;;5037378;28;20182;-75
2021/03/13 03:32:25;;;;;;;2.17;0.80;;;7.00;99.90;;;;;;5037665;28;20182;-76
2021/03/13 03:34:51;;;;;;;2.17;0.90;;;7.00;99.90;;;;;;5034763;28;20227;-75
2021/03/13 03:37:17;;;;;;;1.17;0.70;;;7.00;99.90;;;;;;5035079;28;20202;-75
2021/03/13 03:39:44;;;;;;;3.30;0.77;;;7.00;99.90;;;;;;5035299;28;20703;-76
2021/03/13 03:42:12;;;;;;;1.73;0.73;;;7.00;99.90;;;;;;5034118;28;20171;-75
2021/03/13 03:44:45;;;;;;;2.40;0.87;;;7.00;99.90;;;;;;5032577;28;20180;-75
2021/03/13 03:47:11;;;;;;;2.57;0.90;;;6.90;99.90;;;;;;5033978;28;20312;-74
2021/03/13 03:49:42;;;;;;;3.70;0.80;;;6.90;99.90;;;;;;5033983;28;20265;-75
2021/03/13 03:52:12;;;;;;;3.30;1.00;;;7.00;99.90;;;;;;5033708;28;20179;-75
2021/03/13 03:54:39;;;;;;;2.10;0.90;;;7.00;99.90;;;;;;5033706;28;20251;-75
2021/03/13 03:57:09;;;;;;;2.07;1.00;;;6.90;99.90;;;;;;5032120;28;20248;-75
2021/03/13 03:59:36;;;;;;;2.97;0.87;;;6.90;99.90;;;;;;5033848;28;20177;-76
2021/03/13 04:02:02;;;;;;;2.20;0.80;;;6.90;99.90;;;;;;5035447;28;20187;-75
2021/03/13 04:04:29;;;;;;;2.13;0.60;;;6.90;99.90;;;;;;5033977;28;20190;-76
2021/03/13 04:06:56;;;;;;;2.23;0.70;;;6.90;99.90;;;;;;5033963;28;20193;-75
2021/03/13 04:09:25;;;;;;;1.53;0.70;;;6.90;99.90;;;;;;5025403;28;20213;-75
2021/03/13 04:11:53;;;;;;;2.20;0.70;;;6.90;99.90;;;;;;5033898;28;20954;-76
2021/03/13 04:14:19;;;;;;;1.53;1.00;;;6.90;99.90;;;;;;5033476;28;20190;-75
2021/03/13 04:16:46;;;;;;;2.57;0.73;;;6.90;99.90;;;;;;5033589;28;20201;-76
2021/03/13 04:19:12;;;;;;;1.67;0.60;;;6.90;99.90;;;;;;5032022;28;20198;-76
2021/03/13 04:21:39;;;;;;;3.50;0.67;;;6.90;99.90;;;;;;5033315;28;20190;-75
2021/03/13 04:24:07;;;;;;;1.80;0.70;;;6.90;99.90;;;;;;5033458;28;20167;-76
2021/03/13 04:26:33;;;;;;;0.97;0.50;;;6.90;99.90;;;;;;5024075;28;20762;-76
2021/03/13 04:29:00;;;;;;;1.07;0.60;;;6.90;99.90;;;;;;5044000;28;20205;-76
2021/03/13 04:31:31;;;;;;;1.77;0.57;;;6.90;99.90;;;;;;5031903;28;20285;-76
2021/03/13 04:33:59;;;;;;;2.73;0.80;;;6.90;99.90;;;;;;5033873;28;20171;-76
2021/03/13 04:36:26;;;;;;;4.00;1.17;;;6.90;99.90;;;;;;5034367;28;20190;-75
2021/03/13 04:38:53;;;;;;;2.67;0.80;;;6.90;99.90;;;;;;5034163;28;20936;-75
2021/03/13 04:41:19;;;;;;;2.30;0.67;;;6.80;99.90;;;;;;5032805;28;20170;-77
2021/03/13 04:43:46;;;;;;;1.93;0.57;;;6.90;99.90;;;;;;5031468;28;20229;-75
2021/03/13 04:46:11;;;;;;;5.10;0.90;;;6.90;99.90;;;;;;5031215;28;20179;-76
2021/03/13 04:48:37;;;;;;;3.03;0.73;;;7.00;99.90;;;;;;5031124;28;20268;-75
2021/03/13 04:51:05;;;;;;;3.80;0.90;;;7.00;99.90;;;;;;5032827;28;20189;-75
2021/03/13 04:53:31;;;;;;;0.80;0.60;;;6.90;99.90;;;;;;5032585;28;20186;-75
2021/03/13 04:55:57;;;;;;;2.23;0.80;;;7.00;99.90;;;;;;5029587;28;20190;-75
2021/03/13 04:58:23;;;;;;;3.53;1.23;;;7.00;99.90;;;;;;5031313;28;20206;-76
2021/03/13 05:00:51;;;;;;;2.33;0.80;;;7.00;99.90;;;;;;5028180;28;20183;-75
2021/03/13 05:03:17;;;;;;;2.23;0.60;;;7.00;99.90;;;;;;5016503;28;20330;-75
2021/03/13 05:05:42;;;;;;;2.37;0.70;;;6.90;99.90;;;;;;5025446;28;20266;-75
2021/03/13 05:08:08;;;;;;;1.53;0.70;;;7.00;99.90;;;;;;5029424;28;20229;-75
2021/03/13 05:10:34;;;;;;;6.90;1.17;;;6.90;99.90;;;;;;5031174;28;20875;-76
2021/03/13 05:13:00;;;;;;;2.80;1.13;;;6.90;99.90;;;;;;5031996;28;20317;-75
2021/03/13 05:15:26;;;;;;;4.07;0.90;;;6.90;99.90;;;;;;5029917;28;20269;-76
2021/03/13 05:17:52;;;;;;;1.77;0.90;;;6.90;99.90;;;;;;5033013;28;20213;-75
2021/03/13 05:20:18;;;;;;;1.73;0.70;;;6.90;99.90;;;;;;5053921;22;20229;-81
2021/03/13 05:22:48;;;;;;;4.23;1.00;;;7.00;99.90;;;;;;5044117;28;20173;-79
2021/03/13 05:25:14;;;;;;;1.40;0.50;;;7.00;99.90;;;;;;5045066;28;20201;-81
2021/03/13 05:27:41;;;;;;;1.87;0.60;;;7.00;99.90;;;;;;5044676;28;20207;-81
2021/03/13 05:30:08;;;;;;;0.90;0.60;;;7.00;99.90;;;;;;5035168;28;20206;-81
2021/03/13 05:32:34;;;;;;;3.17;0.90;;;7.00;99.90;;;;;;5044314;28;20201;-80
2021/03/13 05:35:01;;;;;;;2.53;0.77;;;7.00;99.90;;;;;;5044416;28;20247;-80
2021/03/13 05:37:30;;;;;;;2.83;0.77;;;7.00;99.90;;;;;;5044872;28;20686;-81
2021/03/13 05:39:56;;;;;;;2.57;1.00;;;7.00;99.90;;;;;;5042741;28;20193;-81
2021/03/13 05:42:22;;;;;;;3.53;1.20;;;6.90;99.90;;;;;;5043954;28;20179;-81
2021/03/13 05:44:49;;;;;;;1.63;0.60;;;7.00;99.90;;;;;;5042905;28;20175;-81
2021/03/13 05:47:18;;;;;;;3.37;0.73;;;6.90;99.90;;;;;;5043442;28;20182;-80
2021/03/13 05:49:48;;;;;;;2.50;1.00;;;7.00;99.90;;;;;;5043567;28;20202;-80
2021/03/13 05:52:20;;;;;;;2.53;1.03;;;7.00;99.90;;;;;;5044602;28;20187;-80
2021/03/13 05:54:50;;;;;;;3.40;0.67;;;7.00;99.90;;;;;;5041936;28;20187;-80
2021/03/13 05:57:17;;;;;;;3.20;0.87;;;7.00;99.90;;;;;;5044072;28;20194;-80
2021/03/13 05:59:43;;;;;;;2.93;1.20;;;7.00;99.90;;;;;;5042095;28;20195;-79
2021/03/13 06:02:09;;;;;;;2.30;0.80;;;7.10;99.90;;;;;;5042601;28;20226;-80
2021/03/13 06:04:35;;;;;;;2.73;1.10;;;7.10;99.90;;;;;;5043255;28;20166;-80
2021/03/13 06:07:01;;;;;;;1.20;0.70;;;7.10;99.90;;;;;;5041707;28;20209;-80
2021/03/13 06:09:26;;;;;;;1.60;1.10;;;7.20;99.90;;;;;;5039812;28;20642;-81
2021/03/13 06:11:53;;;;;;;3.87;1.60;;;7.20;99.90;;;;;;5040249;28;20198;-78
2021/03/13 06:14:19;;;;;;;1.63;0.93;;;7.20;99.90;;;;;;5028428;28;20175;-80
2021/03/13 06:16:46;;;;;;;2.83;1.20;;;7.20;99.90;;;;;;5041700;28;20237;-80
2021/03/13 06:19:12;;;;;;;2.00;0.60;;;7.20;99.90;;;;;;5042087;28;20285;-79
2021/03/13 06:21:40;;;;;;;0.93;0.47;;;7.30;99.90;;;;;;5043739;28;20587;-81
2021/03/13 06:24:18;;;;;;;2.07;0.97;;;7.20;99.90;;;;;;5043023;28;20197;-79
2021/03/13 06:27:01;;;;;;;1.97;0.70;;;7.30;99.90;;;;;;5041963;28;20190;-81
2021/03/13 06:29:28;;;;;;;2.00;0.50;;;7.30;99.90;;;;;;5032117;28;20566;-81
2021/03/13 06:32:08;;;;;;;2.47;0.80;;;7.30;99.90;;;;;;5013992;28;20202;-81
2021/03/13 06:34:34;;;;;;;4.30;0.90;;;7.30;99.90;;;;;;5045849;28;20220;-81
2021/03/13 06:37:26;;;;;;;1.80;0.73;;;7.40;99.90;;;;;;5046389;28;20205;-81
2021/03/13 06:39:56;;;;;;;3.17;0.70;;;7.40;99.90;;;;;;5045400;28;20221;-80
2021/03/13 06:42:27;;;;;;;1.93;0.60;;;7.40;99.90;;;;;;5043247;28;20720;-81
2021/03/13 06:44:58;;;;;;;1.90;0.80;;;7.40;99.90;;;;;;5046061;28;20166;-80
2021/03/13 06:47:40;;;;;;;3.07;0.80;;;7.50;99.90;;;;;;5045787;28;20186;-79
2021/03/13 06:50:22;;;;;;;1.63;1.27;;;7.50;99.90;;;;;;5043914;28;20202;-80
2021/03/13 06:53:08;;;;;;;3.67;0.70;;;7.60;99.90;;;;;;5023215;28;20211;-80
2021/03/13 06:55:34;;;;;;;3.70;0.40;;;7.50;99.90;;;;;;5040019;28;20253;-81
2021/03/13 06:58:09;;;;;;;1.37;0.50;;;7.60;99.90;;;;;;5042303;28;20587;-80
2021/03/13 07:00:37;;;;;;;1.33;0.50;;;7.60;99.90;;;;;;5043638;28;20241;-81
2021/03/13 07:03:15;;;;;;;3.20;1.00;;;7.70;99.90;;;;;;5044583;28;20171;-79
2021/03/13 07:05:45;;;;;;;0.73;0.40;;;7.70;99.90;;;;;;5039907;28;20167;-80
2021/03/13 07:08:42;;;;;;;0.60;0.60;;;7.80;99.90;;;;;;5009260;28;20186;-80
2021/03/13 07:11:08;;;;;;;1.77;0.70;;;7.80;99.90;;;;;;5006226;28;20212;-80
2021/03/13 07:13:54;;;;;;;2.17;0.73;;;7.80;99.90;;;;;;5011258;28;20255;-81
2021/03/13 07:16:25;;;;;;;2.27;0.53;;;7.90;99.90;;;;;;5011321;28;20239;-81
2021/03/13 07:19:10;;;;;;;1.00;0.60;;;7.90;99.90;;;;;;5010635;28;20184;-80
2021/03/13 07:21:40;;;;;;;1.00;0.60;;;8.00;99.90;;;;;;5010367;28;20660;-81
2021/03/13 07:24:08;;;;;;;2.67;0.80;;;7.90;99.90;;;;;;5022817;28;20561;-81
2021/03/13 07:26:41;;;;;;;1.30;0.70;;;8.00;99.90;;;;;;5023350;28;20187;-81
2021/03/13 07:29:12;;;;;;;2.57;0.70;;;8.00;99.90;;;;;;5027097;28;20180;-81
2021/03/13 07:31:58;;;;;;;1.73;0.53;;;8.10;99.90;;;;;;5025748;28;20185;-81
2021/03/13 07:34:30;;;;;;;1.20;0.50;;;8.20;99.90;;;;;;5027709;28;20723;-80
2021/03/13 07:37:01;;;;;;;0.47;0.47;;;8.20;99.90;;;;;;5026624;28;20530;-81
2021/03/13 07:39:50;;;;;;;2.27;0.67;;;8.20;99.90;;;;;;5025936;28;20263;-80
2021/03/13 07:42:18;;;;;;;1.53;0.53;;;8.30;99.90;;;;;;5023851;28;20207;-80
2021/03/13 07:44:45;;;;;;;2.77;0.60;;;8.30;99.90;;;;;;5022113;28;20175;-80
2021/03/13 07:47:13;;;;;;;0.90;0.50;;;8.40;99.90;;;;;;5027864;28;20668;-80
2021/03/13 07:49:40;;;;;;;0.70;0.37;;;8.40;99.90;;;;;;5043338;28;20199;-80
2021/03/13 07:52:08;;;;;;;1.30;0.73;;;8.40;99.90;;;;;;5043677;28;20167;-80
2021/03/13 07:54:52;;;;;;;1.17;0.50;;;8.40;99.90;;;;;;5038292;28;20210;-80
2021/03/13 07:57:20;;;;;;;0.60;0.30;;;8.50;99.90;;;;;;5043817;28;20195;-81
2021/03/13 07:59:48;;;;;;;1.00;0.67;;;;;;;;;;5046746;28;20202;-80
2021/03/13 08:02:29;;;;;;;4.17;1.10;;;;;;;;;;5029686;28;20677;-80
2021/03/13 08:04:59;;;;;;;1.07;0.50;;;;;;;;;;5028476;28;20209;-81
2021/03/13 08:07:28;;;;;;;1.30;0.40;;;;;;;;;;5043107;28;20182;-81
2021/03/13 08:09:56;;;;;;;2.13;0.47;;;;;;;;;;5044795;28;20203;-80
2021/03/13 08:12:41;;;;;;;1.03;0.57;;;;;;;;;;5043122;28;20668;-80
2021/03/13 08:15:27;;;;;;;0.97;0.50;;;;;;;;;;5043876;28;20184;-80
2021/03/13 08:17:54;;;;;;;1.67;0.50;;;;;;;;;;5044133;28;20227;-80
2021/03/13 08:20:28;;;;;;;0.83;0.50;;;;;;;;;;5043361;28;20569;-80
2021/03/13 08:23:12;;;;;;;0.80;0.33;;;;;;;;;;5046029;28;20258;-80
2021/03/13 08:25:58;;;;;;;2.33;0.57;;;;;;;;;;5043823;28;20171;-81
2021/03/13 08:28:43;;;;;;;1.63;0.60;;;;;;;;;;5040425;28;20205;-81
2021/03/13 08:31:24;;;;;;;1.53;0.60;;;;;;;;;;5028313;28;20202;-81
2021/03/13 08:34:01;;;;;;;2.00;0.70;;;;;;;;;;5025457;28;20196;-80
2021/03/13 08:36:28;;;;;;;1.00;0.40;;;;;;;;;;5027153;28;20221;-79
2021/03/13 08:38:55;;;;;;;2.77;0.80;;;;;;;;;;5010555;28;20239;-80
2021/03/13 08:41:43;;;;;;;0.80;0.50;;;;;;;;;;5023571;28;20175;-79
2021/03/13 08:44:14;;;;;;;2.63;0.60;;;;;;;;;;5030142;28;20222;-79
2021/03/13 08:46:53;;;;;;;2.40;0.70;;;;;;;;;;5038260;28;20184;-81
2021/03/13 08:49:25;;;;;;;5.40;0.50;;;;;;;;;;5021224;28;20206;-81
2021/03/13 08:52:16;;;;;;;1.10;0.50;;;;;;;;;;5030220;28;20779;-81
2021/03/13 08:54:46;;;;;;;0.97;0.50;;;;;;;;;;5045877;28;20199;-80
2021/03/13 08:57:28;;;;;;;3.80;0.50;;;;;;;;;;5046010;28;20286;-81
2021/03/13 08:59:54;;;;;;;1.00;0.50;;;;;;;;;;5043577;28;20198;-80
2021/03/13 09:02:21;;;;;;;0.93;0.50;;;;;;;;;;5043092;28;20175;-80
2021/03/13 09:04:52;;;;;;;2.07;0.50;;;8.60;99.90;;;;;;5045748;28;20171;-81
2021/03/13 09:07:19;;;;;;;2.90;0.40;;;9.50;99.90;;;;;;5047939;28;20169;-80
2021/03/13 09:09:45;;;;;;;1.00;0.50;;;9.50;99.90;;;;;;5043253;28;20203;-79
2021/03/13 09:12:21;;;;;;;0.80;0.30;;;9.50;99.90;;;;;;5040986;28;20192;-79
2021/03/13 09:14:50;;;;;;;1.43;0.40;;;9.60;99.90;;;;;;5043445;28;20180;-80
2021/03/13 09:17:18;;;;;;;2.33;0.40;;;9.70;99.90;;;;;;5043104;28;20196;-79
2021/03/13 09:19:45;;;;;;;2.43;1.10;;;9.70;99.90;;;;;;5041595;28;20279;-79
2021/03/13 09:22:14;;;;;;;1.93;0.30;;;9.80;99.90;;;;;;5038908;28;20243;-81
2021/03/13 09:24:40;;;;;;;1.50;0.30;;;9.70;99.90;;;;;;5017365;28;20651;-79
2021/03/13 09:27:06;;;;;;;0.70;0.20;;;9.90;99.90;;;;;;5019243;28;20179;-80
2021/03/13 09:29:35;;;;;;;1.53;0.40;;;9.80;99.90;;;;;;5020362;28;20205;-80
2021/03/13 09:32:12;;;;;;;1.10;0.30;;;10.00;99.90;;;;;;5031391;28;20264;-79
2021/03/13 09:34:40;;;;;;;2.90;0.43;;;;;;;;;;5045097;28;20167;-80
2021/03/13 09:37:17;;;;;;;1.07;0.50;;;;;;;;;;5044795;28;20238;-81
2021/03/13 09:39:44;;;;;;;2.57;0.47;;;;;;;;;;5046013;28;20196;-81
2021/03/13 09:42:12;;;;;;;1.43;0.40;;;;;;;;;;5046518;28;20176;-81
2021/03/13 09:44:38;;;;;;;0.80;0.50;;;;;;;;;;5042545;28;20174;-81
2021/03/13 09:47:14;;;;;;;1.53;0.50;;;;;;;;;;5038580;28;20550;-81
2021/03/13 09:49:41;;;;;;;1.00;0.50;;;;;;;;;;5038316;28;20665;-82
2021/03/13 09:52:07;;;;;;;1.60;0.40;;;;;;;;;;5038060;28;20259;-81
2021/03/13 09:54:34;;;;;;;0.30;0.30;;;;;;;;;;5040111;28;20250;-81
2021/03/13 09:57:07;;;;;;;1.67;0.47;;;;;;;;;;5040665;28;20190;-81
2021/03/13 09:59:33;;;;;;;0.87;0.57;;;;;;;;;;5040918;28;20226;-81
2021/03/13 10:01:59;;;;;;;1.17;0.30;;;;;;;;;;5039804;28;20173;-81
2021/03/13 10:04:26;;;;;;;0.50;0.30;;;;;;;;;;5039890;28;20253;-80
2021/03/13 10:06:52;;;;;;;0.87;0.30;;;;;;;;;;5041128;28;20188;-81
2021/03/13 10:09:18;;;;;;;1.00;0.30;;;;;;;;;;5040029;28;20663;-81
2021/03/13 10:11:44;;;;;;;2.43;0.30;;;;;;;;;;5038054;28;20196;-81
2021/03/13 10:14:21;;;;;;;1.20;0.27;;;;;;;;;;5021144;28;20178;-81
2021/03/13 10:16:48;;;;;;;0.70;0.27;;;;;;;;;;5019496;28;20578;-82
2021/03/13 10:19:34;;;;;;;1.77;0.40;;;;;;;;;;5038386;28;20204;-81
2021/03/13 10:22:10;;;;;;;2.93;0.50;;;;;;;;;;5022142;28;20202;-82
2021/03/13 10:25:02;;;;;;;1.07;0.40;;;;;;;;;;5021235;28;20173;-80
2021/03/13 10:27:29;;;;;;;0.60;0.37;;;;;;;;;;5021633;28;20221;-82
2021/03/13 10:29:57;;;;;;;2.60;0.43;;;;;;;;;;5018891;28;20208;-80
2021/03/13 10:32:24;;;;;;;0.80;0.37;;;;;;;;;;5012180;28;20721;-81
2021/03/13 10:35:07;;;;;;;0.80;0.40;;;;;;;;;;5038725;28;20186;-81
2021/03/13 10:37:37;;;;;;;2.70;0.27;;;;;;;;;;5022735;28;20197;-81
2021/03/13 10:40:03;;;;;;;2.20;0.40;;;;;;;;;;5025302;28;20197;-80
2021/03/13 10:42:34;;;;;;;0.57;0.40;;;;;;;;;;5021518;28;20303;-81
2021/03/13 10:45:20;;;;;;;1.13;0.47;;;;;;;;;;5025226;28;20174;-81
2021/03/13 10:47:47;;;;;;;1.67;0.40;;;;;;;;;;5027664;28;20199;-81
2021/03/13 10:50:13;;;;;;;1.37;0.33;;;;;;;;;;5028975;28;20205;-80
2021/03/13 10:52:41;;;;;;;1.43;0.43;;;;;;;;;;5040233;28;20181;-80
2021/03/13 10:55:07;;;;;;;1.27;0.37;;;;;;;;;;5047094;28;20181;-76
2021/03/13 10:57:34;;;;;;;0.77;0.33;;;;;;;;;;5037241;28;20190;-77
2021/03/13 11:00:00;;;;;;;2.37;0.30;;;;;;;;;;5012218;28;20569;-77
2021/03/13 11:02:26;;;;;;;0.60;0.30;;;;;;;;;;5036130;28;20173;-79
2021/03/13 11:04:52;;;;;;;1.00;0.37;;;;;;;;;;5034894;28;20177;-77
2021/03/13 11:07:18;;;;;;;1.20;0.47;;;;;;;;;;5036482;28;20178;-77
2021/03/13 11:09:46;;;;;;;0.63;0.33;;;10.00;99.90;;;;;;5036510;28;20219;-77
2021/03/13 11:12:12;;;;;;;3.30;0.50;;;11.20;99.90;;;;;;5036439;28;20185;-77
2021/03/13 11:14:38;;;;;;;0.77;0.23;;;;;;;;;;5036490;28;20174;-77
2021/03/13 11:17:04;;;;;;;0.77;0.30;;;;;;;;;;5036296;28;20197;-77
2021/03/13 11:21:58;;;;;;;0.73;0.43;;;;;;;;;;5046125;22;20237;-75
2021/03/13 11:24:26;;;;;;;1.23;0.60;;;;;;;;;;5036662;28;20239;-76
2021/03/13 11:26:52;;;;;;;0.97;0.40;;;;;;;;;;5036433;28;20641;-77
2021/03/13 11:29:18;;;;;;;5.87;0.63;;;;;;;;;;5027711;28;20177;-76
2021/03/13 11:31:44;;;;;;;1.40;0.30;;;;;;;;;;5035164;28;20570;-76
2021/03/13 11:34:10;;;;;;;5.80;0.57;;;;;;;;;;5034899;28;20256;-77
2021/03/13 11:36:36;;;;;;;1.90;0.30;;;;;;;;;;5034702;28;20593;-76
2021/03/13 11:39:06;;;;;;;3.97;0.40;;;11.20;99.90;;;;;;5034741;28;20579;-74
2021/03/13 11:41:32;;;;;;;0.63;0.40;;;11.40;99.90;;;;;;5035826;28;20193;-74
2021/03/13 11:43:57;;;;;;;1.80;0.40;;;11.40;99.90;;;;;;5036073;28;20239;-74
2021/03/13 11:46:24;;;;;;;1.33;0.30;;;11.40;99.90;;;;;;5035987;28;20178;-74
2021/03/13 11:48:49;;;;;;;0.60;0.30;;;11.30;99.90;;;;;;5034538;28;20179;-74
2021/03/13 11:51:15;;;;;;;3.40;0.60;;;11.30;99.90;;;;;;5035771;28;20631;-74
2021/03/13 11:53:41;;;;;;;3.13;0.40;;;11.40;99.90;;;;;;5035921;28;20526;-74
2021/03/13 11:56:07;;;;;;;2.07;0.40;;;11.40;99.90;;;;;;5034613;28;20182;-74
2021/03/13 11:58:32;;;;;;;2.57;0.40;;;11.40;99.90;;;;;;5035634;28;20182;-74
2021/03/13 12:00:58;;;;;;;1.40;0.37;;;11.40;99.90;;;;;;5035636;28;20197;-73
2021/03/13 12:03:24;;;;;;;2.20;0.50;;;11.30;99.90;;;;;;5035837;28;20185;-73
2021/03/13 12:05:49;;;;;;;1.60;0.40;;;11.30;99.90;;;;;;5027078;28;20182;-73
2021/03/13 12:08:15;;;;;;;0.83;0.60;;;11.20;99.90;;;;;;5027124;28;20197;-73
2021/03/13 12:10:41;;;;;;;3.53;0.57;;;11.30;99.90;;;;;;5035348;28;20201;-74
2021/03/13 12:13:07;;;;;;;3.43;0.40;;;11.20;99.90;;;;;;5035232;28;20179;-72
2021/03/13 12:15:33;;;;;;;2.27;0.30;;;11.10;99.90;;;;;;5033651;28;20185;-74
2021/03/13 12:17:59;;;;;;;1.43;0.60;;;10.90;99.90;;;;;;5035467;28;20214;-74
2021/03/13 12:20:25;;;;;;;1.40;0.43;;;10.80;99.90;;;;;;5035225;28;20575;-75
2021/03/13 12:22:52;;;;;;;1.90;0.30;;;10.80;99.90;;;;;;5035017;28;20179;-74
2021/03/13 12:25:17;;;;;;;2.97;0.60;;;10.80;99.90;;;;;;5024534;28;20182;-73
2021/03/13 12:27:43;;;;;;;0.70;0.40;;;10.80;99.90;;;;;;5013566;28;20180;-73
2021/03/13 12:30:11;;;;;;;1.67;0.40;;;10.90;99.90;;;;;;4994567;28;20705;-73
2021/03/13 12:32:40;;;;;;;1.23;0.50;;;11.00;99.90;;;;;;5007587;28;20196;-74
2021/03/13 12:35:08;;;;;;;1.73;0.37;;;11.00;99.90;;;;;;5008781;28;20196;-74
2021/03/13 12:37:35;;;;;;;2.40;0.33;;;11.20;99.90;;;;;;5010972;28;20268;-73
2021/03/13 12:40:01;;;;;;;0.67;0.30;;;11.20;99.90;;;;;;5008753;28;20235;-74
2021/03/13 12:42:27;;;;;;;5.10;0.43;;;11.30;99.90;;;;;;5013863;28;20174;-74
2021/03/13 12:44:53;;;;;;;1.23;0.30;;;11.30;99.90;;;;;;4999170;28;20183;-74
2021/03/13 12:47:19;;;;;;;1.13;0.40;;;11.30;99.90;;;;;;5010584;28;20197;-74
2021/03/13 12:49:45;;;;;;;0.67;0.20;;;11.40;99.90;;;;;;5014929;28;20181;-74
2021/03/13 12:52:11;;;;;;;0.70;0.30;;;11.40;99.90;;;;;;5009695;28;20185;-74
2021/03/13 12:54:37;;;;;;;1.30;0.30;;;11.40;99.90;;;;;;5023866;28;20216;-74
2021/03/13 12:57:04;;;;;;;0.20;0.20;;;11.40;99.90;;;;;;5033203;28;20200;-73
2021/03/13 12:59:30;;;;;;;0.80;0.40;;;11.50;99.90;;;;;;5034510;28;20173;-74
2021/03/13 13:01:56;;;;;;;0.47;0.20;;;11.50;99.90;;;;;;5034145;28;20280;-74
2021/03/13 13:04:21;;;;;;;0.73;0.30;;;11.50;99.90;;;;;;5032814;28;20201;-73
2021/03/13 13:06:47;;;;;;;3.57;0.60;;;11.60;99.90;;;;;;5034166;28;20185;-73
2021/03/13 13:09:13;;;;;;;2.47;0.53;;;11.60;99.90;;;;;;5034218;28;20197;-74
2021/03/13 13:11:38;;;;;;;1.13;0.40;;;11.60;99.90;;;;;;5034150;28;20198;-73
2021/03/13 13:14:05;;;;;;;1.00;0.40;;;11.60;99.90;;;;;;5000945;28;20212;-74
2021/03/13 13:16:31;;;;;;;2.73;0.47;;;11.60;99.90;;;;;;5005830;28;20199;-74
2021/03/13 13:18:57;;;;;;;1.43;0.30;;;11.60;99.90;;;;;;5007534;28;20238;-74
2021/03/13 13:21:23;;;;;;;2.83;0.30;;;11.60;99.90;;;;;;5018783;28;20209;-74
2021/03/13 13:23:48;;;;;;;0.57;0.40;;;11.60;99.90;;;;;;5011511;28;20185;-73
2021/03/13 13:26:14;;;;;;;2.57;0.40;;;11.70;99.90;;;;;;5014453;28;20182;-74
2021/03/13 13:28:40;;;;;;;1.67;0.40;;;11.60;99.90;;;;;;5002785;28;20182;-74
2021/03/13 13:31:06;;;;;;;1.63;0.37;;;11.60;99.90;;;;;;4998535;28;20196;-74